sensor_id;sensor_type;location;lat;lon;timestamp;P1;durP1;ratioP1;P2;durP2;ratioP2
10851;SDS011;5479;52.046;6.314;2023-03-05T00:00:27;6.07;;;1.93;;
10851;SDS011;5479;52.046;6.314;2023-03-05T00:02:55;11.13;;;3.00;;
10851;SDS011;5479;52.046;6.314;2023-03-05T00:05:23;6.97;;;2.30;;
10851;SDS011;5479;52.046;6.314;2023-03-05T00:07:51;5.83;;;2.13;;
10851;SDS011;5479;52.046;6.314;2023-03-05T00:10:20;6.63;;;2.10;;
10851;SDS011;5479;52.046;6.314;2023-03-05T00:12:48;7.30;;;2.30;;
10851;SDS011;5479;52.046;6.314;2023-03-05T00:15:16;5.47;;;2.00;;
10851;SDS011;5479;52.046;6.314;2023-03-05T00:17:44;6.80;;;2.03;;
10851;SDS011;5479;52.046;6.314;2023-03-05T00:20:12;5.33;;;1.97;;
10851;SDS011;5479;52.046;6.314;2023-03-05T00:22:40;6.63;;;2.43;;
10851;SDS011;5479;52.046;6.314;2023-03-05T00:25:08;7.43;;;2.83;;
10851;SDS011;5479;52.046;6.314;2023-03-05T00:27:38;6.57;;;2.40;;
10851;SDS011;5479;52.046;6.314;2023-03-05T00:30:06;6.73;;;2.10;;
10851;SDS011;5479;52.046;6.314;2023-03-05T00:32:35;4.33;;;1.97;;
10851;SDS011;5479;52.046;6.314;2023-03-05T00:35:03;7.63;;;2.40;;
10851;SDS011;5479;52.046;6.314;2023-03-05T00:37:32;6.13;;;2.37;;
10851;SDS011;5479;52.046;6.314;2023-03-05T00:40:00;5.83;;;2.57;;
10851;SDS011;5479;52.046;6.314;2023-03-05T00:42:28;6.63;;;2.37;;
10851;SDS011;5479;52.046;6.314;2023-03-05T00:44:57;7.30;;;2.10;;
10851;SDS011;5479;52.046;6.314;2023-03-05T00:47:25;5.97;;;2.30;;
10851;SDS011;5479;52.046;6.314;2023-03-05T00:49:53;8.73;;;2.40;;
10851;SDS011;5479;52.046;6.314;2023-03-05T00:52:21;7.93;;;2.30;;
10851;SDS011;5479;52.046;6.314;2023-03-05T00:54:49;4.17;;;2.00;;
10851;SDS011;5479;52.046;6.314;2023-03-05T00:57:17;6.83;;;2.10;;
10851;SDS011;5479;52.046;6.314;2023-03-05T00:59:46;6.73;;;2.53;;
10851;SDS011;5479;52.046;6.314;2023-03-05T01:02:20;7.90;;;2.30;;
10851;SDS011;5479;52.046;6.314;2023-03-05T01:04:48;2.97;;;1.43;;
10851;SDS011;5479;52.046;6.314;2023-03-05T01:07:16;4.73;;;1.83;;
10851;SDS011;5479;52.046;6.314;2023-03-05T01:09:44;6.47;;;2.13;;
10851;SDS011;5479;52.046;6.314;2023-03-05T01:12:12;6.17;;;2.00;;
10851;SDS011;5479;52.046;6.314;2023-03-05T01:14:39;4.73;;;1.53;;
10851;SDS011;5479;52.046;6.314;2023-03-05T01:17:08;5.40;;;1.70;;
10851;SDS011;5479;52.046;6.314;2023-03-05T01:19:37;6.10;;;1.87;;
10851;SDS011;5479;52.046;6.314;2023-03-05T01:22:05;6.63;;;1.70;;
10851;SDS011;5479;52.046;6.314;2023-03-05T01:24:33;4.50;;;1.60;;
10851;SDS011;5479;52.046;6.314;2023-03-05T01:27:01;5.17;;;1.87;;
10851;SDS011;5479;52.046;6.314;2023-03-05T01:29:29;6.87;;;1.80;;
10851;SDS011;5479;52.046;6.314;2023-03-05T01:31:56;5.53;;;1.60;;
10851;SDS011;5479;52.046;6.314;2023-03-05T01:34:24;6.60;;;1.60;;
10851;SDS011;5479;52.046;6.314;2023-03-05T01:36:54;4.33;;;1.70;;
10851;SDS011;5479;52.046;6.314;2023-03-05T01:39:22;6.00;;;1.63;;
10851;SDS011;5479;52.046;6.314;2023-03-05T01:41:49;5.40;;;1.67;;
10851;SDS011;5479;52.046;6.314;2023-03-05T01:44:21;5.40;;;1.77;;
10851;SDS011;5479;52.046;6.314;2023-03-05T01:46:51;7.07;;;2.13;;
10851;SDS011;5479;52.046;6.314;2023-03-05T01:49:19;7.10;;;2.47;;
10851;SDS011;5479;52.046;6.314;2023-03-05T01:51:53;7.13;;;2.20;;
10851;SDS011;5479;52.046;6.314;2023-03-05T01:54:28;6.30;;;2.00;;
10851;SDS011;5479;52.046;6.314;2023-03-05T01:57:01;5.90;;;1.80;;
10851;SDS011;5479;52.046;6.314;2023-03-05T01:59:34;5.83;;;2.00;;
10851;SDS011;5479;52.046;6.314;2023-03-05T02:02:04;5.90;;;1.90;;
10851;SDS011;5479;52.046;6.314;2023-03-05T02:04:35;5.43;;;1.97;;
10851;SDS011;5479;52.046;6.314;2023-03-05T02:07:10;8.80;;;2.10;;
10851;SDS011;5479;52.046;6.314;2023-03-05T02:09:39;6.13;;;2.10;;
10851;SDS011;5479;52.046;6.314;2023-03-05T02:12:07;6.93;;;2.37;;
10851;SDS011;5479;52.046;6.314;2023-03-05T02:14:37;5.60;;;2.13;;
10851;SDS011;5479;52.046;6.314;2023-03-05T02:17:09;6.43;;;2.00;;
10851;SDS011;5479;52.046;6.314;2023-03-05T02:19:48;5.43;;;2.10;;
10851;SDS011;5479;52.046;6.314;2023-03-05T02:22:20;8.33;;;2.13;;
10851;SDS011;5479;52.046;6.314;2023-03-05T02:24:49;5.13;;;2.00;;
10851;SDS011;5479;52.046;6.314;2023-03-05T02:27:19;5.47;;;2.43;;
10851;SDS011;5479;52.046;6.314;2023-03-05T02:29:49;7.73;;;2.07;;
10851;SDS011;5479;52.046;6.314;2023-03-05T02:32:18;4.53;;;2.07;;
10851;SDS011;5479;52.046;6.314;2023-03-05T02:34:45;7.37;;;2.30;;
10851;SDS011;5479;52.046;6.314;2023-03-05T02:37:13;6.37;;;2.07;;
10851;SDS011;5479;52.046;6.314;2023-03-05T02:39:42;4.37;;;2.03;;
10851;SDS011;5479;52.046;6.314;2023-03-05T02:42:10;4.13;;;2.03;;
10851;SDS011;5479;52.046;6.314;2023-03-05T02:44:38;5.53;;;2.20;;
10851;SDS011;5479;52.046;6.314;2023-03-05T02:47:06;5.30;;;2.40;;
10851;SDS011;5479;52.046;6.314;2023-03-05T02:49:34;6.23;;;2.20;;
10851;SDS011;5479;52.046;6.314;2023-03-05T02:52:02;4.43;;;1.80;;
10851;SDS011;5479;52.046;6.314;2023-03-05T02:54:30;7.20;;;2.30;;
10851;SDS011;5479;52.046;6.314;2023-03-05T02:56:59;6.37;;;2.43;;
10851;SDS011;5479;52.046;6.314;2023-03-05T02:59:28;6.47;;;2.30;;
10851;SDS011;5479;52.046;6.314;2023-03-05T03:01:56;5.20;;;1.90;;
10851;SDS011;5479;52.046;6.314;2023-03-05T03:04:24;6.67;;;2.00;;
10851;SDS011;5479;52.046;6.314;2023-03-05T03:06:52;8.93;;;2.43;;
10851;SDS011;5479;52.046;6.314;2023-03-05T03:09:19;6.20;;;2.07;;
10851;SDS011;5479;52.046;6.314;2023-03-05T03:11:47;5.73;;;1.97;;
10851;SDS011;5479;52.046;6.314;2023-03-05T03:14:17;6.43;;;2.03;;
10851;SDS011;5479;52.046;6.314;2023-03-05T03:16:45;4.93;;;2.00;;
10851;SDS011;5479;52.046;6.314;2023-03-05T03:19:13;5.77;;;2.43;;
10851;SDS011;5479;52.046;6.314;2023-03-05T03:21:41;8.27;;;2.43;;
10851;SDS011;5479;52.046;6.314;2023-03-05T03:24:09;6.50;;;2.60;;
10851;SDS011;5479;52.046;6.314;2023-03-05T03:26:37;6.70;;;2.40;;
10851;SDS011;5479;52.046;6.314;2023-03-05T03:29:05;8.27;;;2.30;;
10851;SDS011;5479;52.046;6.314;2023-03-05T03:31:34;8.83;;;2.63;;
10851;SDS011;5479;52.046;6.314;2023-03-05T03:34:05;5.70;;;2.10;;
10851;SDS011;5479;52.046;6.314;2023-03-05T03:36:33;5.37;;;2.40;;
10851;SDS011;5479;52.046;6.314;2023-03-05T03:39:01;6.77;;;2.47;;
10851;SDS011;5479;52.046;6.314;2023-03-05T03:41:31;7.50;;;2.50;;
10851;SDS011;5479;52.046;6.314;2023-03-05T03:43:59;6.70;;;2.47;;
10851;SDS011;5479;52.046;6.314;2023-03-05T03:46:28;8.67;;;2.40;;
10851;SDS011;5479;52.046;6.314;2023-03-05T03:48:57;8.37;;;2.57;;
10851;SDS011;5479;52.046;6.314;2023-03-05T03:51:25;6.10;;;2.33;;
10851;SDS011;5479;52.046;6.314;2023-03-05T03:53:53;5.87;;;2.40;;
10851;SDS011;5479;52.046;6.314;2023-03-05T03:56:21;8.57;;;2.27;;
10851;SDS011;5479;52.046;6.314;2023-03-05T03:58:49;5.80;;;2.37;;
10851;SDS011;5479;52.046;6.314;2023-03-05T04:01:17;8.87;;;3.10;;
10851;SDS011;5479;52.046;6.314;2023-03-05T04:03:46;8.97;;;2.70;;
10851;SDS011;5479;52.046;6.314;2023-03-05T04:06:15;7.03;;;2.80;;
10851;SDS011;5479;52.046;6.314;2023-03-05T04:08:43;6.93;;;2.67;;
10851;SDS011;5479;52.046;6.314;2023-03-05T04:11:11;7.40;;;2.87;;
10851;SDS011;5479;52.046;6.314;2023-03-05T04:13:40;7.57;;;2.40;;
10851;SDS011;5479;52.046;6.314;2023-03-05T04:16:09;5.33;;;2.50;;
10851;SDS011;5479;52.046;6.314;2023-03-05T04:18:36;8.60;;;2.53;;
10851;SDS011;5479;52.046;6.314;2023-03-05T04:21:04;7.13;;;2.83;;
10851;SDS011;5479;52.046;6.314;2023-03-05T04:23:34;5.53;;;2.53;;
10851;SDS011;5479;52.046;6.314;2023-03-05T04:26:02;5.63;;;2.70;;
10851;SDS011;5479;52.046;6.314;2023-03-05T04:28:31;6.80;;;2.37;;
10851;SDS011;5479;52.046;6.314;2023-03-05T04:30:59;8.07;;;3.00;;
10851;SDS011;5479;52.046;6.314;2023-03-05T04:33:27;8.13;;;2.90;;
10851;SDS011;5479;52.046;6.314;2023-03-05T04:35:55;6.07;;;2.70;;
10851;SDS011;5479;52.046;6.314;2023-03-05T04:38:23;5.60;;;2.80;;
10851;SDS011;5479;52.046;6.314;2023-03-05T04:40:52;8.47;;;2.80;;
10851;SDS011;5479;52.046;6.314;2023-03-05T04:43:20;8.30;;;3.30;;
10851;SDS011;5479;52.046;6.314;2023-03-05T04:45:47;6.20;;;2.67;;
10851;SDS011;5479;52.046;6.314;2023-03-05T04:48:15;7.80;;;3.03;;
10851;SDS011;5479;52.046;6.314;2023-03-05T04:50:44;8.27;;;2.90;;
10851;SDS011;5479;52.046;6.314;2023-03-05T04:53:12;5.60;;;2.67;;
10851;SDS011;5479;52.046;6.314;2023-03-05T04:55:40;5.03;;;2.67;;
10851;SDS011;5479;52.046;6.314;2023-03-05T04:58:09;7.70;;;3.20;;
10851;SDS011;5479;52.046;6.314;2023-03-05T05:00:37;9.60;;;3.10;;
10851;SDS011;5479;52.046;6.314;2023-03-05T05:03:05;6.63;;;2.60;;
10851;SDS011;5479;52.046;6.314;2023-03-05T05:05:33;5.93;;;2.73;;
10851;SDS011;5479;52.046;6.314;2023-03-05T05:08:01;10.10;;;3.47;;
10851;SDS011;5479;52.046;6.314;2023-03-05T05:10:29;8.93;;;3.43;;
10851;SDS011;5479;52.046;6.314;2023-03-05T05:12:59;7.83;;;3.50;;
10851;SDS011;5479;52.046;6.314;2023-03-05T05:15:28;7.27;;;3.30;;
10851;SDS011;5479;52.046;6.314;2023-03-05T05:17:57;6.83;;;3.20;;
10851;SDS011;5479;52.046;6.314;2023-03-05T05:20:25;6.53;;;3.50;;
10851;SDS011;5479;52.046;6.314;2023-03-05T05:22:53;8.40;;;3.47;;
10851;SDS011;5479;52.046;6.314;2023-03-05T05:25:21;8.33;;;3.60;;
10851;SDS011;5479;52.046;6.314;2023-03-05T05:27:49;10.20;;;3.50;;
10851;SDS011;5479;52.046;6.314;2023-03-05T05:30:17;6.50;;;3.53;;
10851;SDS011;5479;52.046;6.314;2023-03-05T05:32:46;8.00;;;4.33;;
10851;SDS011;5479;52.046;6.314;2023-03-05T05:35:14;8.30;;;3.77;;
10851;SDS011;5479;52.046;6.314;2023-03-05T05:37:42;6.90;;;4.13;;
10851;SDS011;5479;52.046;6.314;2023-03-05T05:40:10;7.80;;;4.30;;
10851;SDS011;5479;52.046;6.314;2023-03-05T05:42:39;8.13;;;3.93;;
10851;SDS011;5479;52.046;6.314;2023-03-05T05:45:07;8.17;;;4.30;;
10851;SDS011;5479;52.046;6.314;2023-03-05T05:47:36;10.00;;;4.47;;
10851;SDS011;5479;52.046;6.314;2023-03-05T05:50:06;8.93;;;4.30;;
10851;SDS011;5479;52.046;6.314;2023-03-05T05:52:34;9.30;;;4.70;;
10851;SDS011;5479;52.046;6.314;2023-03-05T05:55:03;9.97;;;4.40;;
10851;SDS011;5479;52.046;6.314;2023-03-05T05:57:32;9.50;;;4.13;;
10851;SDS011;5479;52.046;6.314;2023-03-05T06:00:00;8.70;;;4.47;;
10851;SDS011;5479;52.046;6.314;2023-03-05T06:02:29;8.00;;;4.13;;
10851;SDS011;5479;52.046;6.314;2023-03-05T06:04:57;9.40;;;4.30;;
10851;SDS011;5479;52.046;6.314;2023-03-05T06:07:27;8.90;;;4.40;;
10851;SDS011;5479;52.046;6.314;2023-03-05T06:09:54;7.00;;;3.80;;
10851;SDS011;5479;52.046;6.314;2023-03-05T06:12:22;8.77;;;3.83;;
10851;SDS011;5479;52.046;6.314;2023-03-05T06:14:50;7.53;;;4.10;;
10851;SDS011;5479;52.046;6.314;2023-03-05T06:17:20;9.27;;;4.20;;
10851;SDS011;5479;52.046;6.314;2023-03-05T06:19:48;6.90;;;4.00;;
10851;SDS011;5479;52.046;6.314;2023-03-05T06:22:15;10.33;;;3.90;;
10851;SDS011;5479;52.046;6.314;2023-03-05T06:24:45;5.77;;;3.70;;
10851;SDS011;5479;52.046;6.314;2023-03-05T06:27:12;8.43;;;4.10;;
10851;SDS011;5479;52.046;6.314;2023-03-05T06:29:40;9.70;;;3.93;;
10851;SDS011;5479;52.046;6.314;2023-03-05T06:32:08;7.43;;;3.60;;
10851;SDS011;5479;52.046;6.314;2023-03-05T06:34:36;7.20;;;4.20;;
10851;SDS011;5479;52.046;6.314;2023-03-05T06:37:04;7.37;;;3.97;;
10851;SDS011;5479;52.046;6.314;2023-03-05T06:39:32;8.93;;;4.10;;
10851;SDS011;5479;52.046;6.314;2023-03-05T06:42:02;8.60;;;3.77;;
10851;SDS011;5479;52.046;6.314;2023-03-05T06:44:30;6.07;;;3.53;;
10851;SDS011;5479;52.046;6.314;2023-03-05T06:46:58;7.70;;;3.67;;
10851;SDS011;5479;52.046;6.314;2023-03-05T06:49:26;7.10;;;3.53;;
10851;SDS011;5479;52.046;6.314;2023-03-05T06:51:54;8.37;;;3.70;;
10851;SDS011;5479;52.046;6.314;2023-03-05T06:54:21;8.47;;;3.90;;
10851;SDS011;5479;52.046;6.314;2023-03-05T06:56:49;5.70;;;3.77;;
10851;SDS011;5479;52.046;6.314;2023-03-05T06:59:19;8.50;;;3.80;;
10851;SDS011;5479;52.046;6.314;2023-03-05T07:01:47;8.97;;;4.27;;
10851;SDS011;5479;52.046;6.314;2023-03-05T07:04:15;5.67;;;3.63;;
10851;SDS011;5479;52.046;6.314;2023-03-05T07:06:43;6.70;;;3.57;;
10851;SDS011;5479;52.046;6.314;2023-03-05T07:09:12;7.73;;;3.70;;
10851;SDS011;5479;52.046;6.314;2023-03-05T07:11:41;8.00;;;3.70;;
10851;SDS011;5479;52.046;6.314;2023-03-05T07:14:09;9.17;;;4.00;;
10851;SDS011;5479;52.046;6.314;2023-03-05T07:16:38;8.17;;;4.03;;
10851;SDS011;5479;52.046;6.314;2023-03-05T07:19:06;6.80;;;4.23;;
10851;SDS011;5479;52.046;6.314;2023-03-05T07:21:36;7.37;;;4.57;;
10851;SDS011;5479;52.046;6.314;2023-03-05T07:24:04;10.57;;;5.30;;
10851;SDS011;5479;52.046;6.314;2023-03-05T07:26:33;7.70;;;4.50;;
10851;SDS011;5479;52.046;6.314;2023-03-05T07:29:02;8.57;;;4.63;;
10851;SDS011;5479;52.046;6.314;2023-03-05T07:31:30;10.37;;;4.83;;
10851;SDS011;5479;52.046;6.314;2023-03-05T07:34:00;9.97;;;4.60;;
10851;SDS011;5479;52.046;6.314;2023-03-05T07:36:29;8.47;;;4.63;;
10851;SDS011;5479;52.046;6.314;2023-03-05T07:38:59;8.53;;;4.30;;
10851;SDS011;5479;52.046;6.314;2023-03-05T07:41:27;7.37;;;4.40;;
10851;SDS011;5479;52.046;6.314;2023-03-05T07:43:55;9.67;;;4.80;;
10851;SDS011;5479;52.046;6.314;2023-03-05T07:46:25;8.33;;;4.47;;
10851;SDS011;5479;52.046;6.314;2023-03-05T07:48:54;7.57;;;4.53;;
10851;SDS011;5479;52.046;6.314;2023-03-05T07:51:24;6.67;;;4.30;;
10851;SDS011;5479;52.046;6.314;2023-03-05T07:53:54;9.30;;;4.50;;
10851;SDS011;5479;52.046;6.314;2023-03-05T07:56:25;9.63;;;4.77;;
10851;SDS011;5479;52.046;6.314;2023-03-05T07:58:57;8.30;;;4.30;;
10851;SDS011;5479;52.046;6.314;2023-03-05T08:01:25;8.70;;;4.83;;
10851;SDS011;5479;52.046;6.314;2023-03-05T08:03:53;7.30;;;4.50;;
10851;SDS011;5479;52.046;6.314;2023-03-05T08:06:21;9.53;;;4.17;;
10851;SDS011;5479;52.046;6.314;2023-03-05T08:08:50;9.13;;;4.40;;
10851;SDS011;5479;52.046;6.314;2023-03-05T08:11:18;6.93;;;4.10;;
10851;SDS011;5479;52.046;6.314;2023-03-05T08:13:46;7.27;;;3.73;;
10851;SDS011;5479;52.046;6.314;2023-03-05T08:16:16;7.00;;;3.80;;
10851;SDS011;5479;52.046;6.314;2023-03-05T08:18:45;6.93;;;3.60;;
10851;SDS011;5479;52.046;6.314;2023-03-05T08:21:14;8.80;;;4.20;;
10851;SDS011;5479;52.046;6.314;2023-03-05T08:23:43;7.67;;;4.00;;
10851;SDS011;5479;52.046;6.314;2023-03-05T08:26:13;7.33;;;3.67;;
10851;SDS011;5479;52.046;6.314;2023-03-05T08:28:43;6.63;;;3.50;;
10851;SDS011;5479;52.046;6.314;2023-03-05T08:31:12;8.80;;;3.80;;
10851;SDS011;5479;52.046;6.314;2023-03-05T08:33:41;6.97;;;3.87;;
10851;SDS011;5479;52.046;6.314;2023-03-05T08:36:09;5.90;;;3.80;;
10851;SDS011;5479;52.046;6.314;2023-03-05T08:38:38;7.13;;;3.57;;
10851;SDS011;5479;52.046;6.314;2023-03-05T08:41:07;6.27;;;3.30;;
10851;SDS011;5479;52.046;6.314;2023-03-05T08:43:36;9.20;;;3.70;;
10851;SDS011;5479;52.046;6.314;2023-03-05T08:46:04;7.00;;;3.27;;
10851;SDS011;5479;52.046;6.314;2023-03-05T08:48:32;6.63;;;3.30;;
10851;SDS011;5479;52.046;6.314;2023-03-05T08:51:03;8.60;;;3.17;;
10851;SDS011;5479;52.046;6.314;2023-03-05T08:53:32;8.93;;;3.60;;
10851;SDS011;5479;52.046;6.314;2023-03-05T08:56:00;6.80;;;3.40;;
10851;SDS011;5479;52.046;6.314;2023-03-05T08:58:29;6.17;;;3.03;;
10851;SDS011;5479;52.046;6.314;2023-03-05T09:00:58;5.77;;;2.97;;
10851;SDS011;5479;52.046;6.314;2023-03-05T09:03:26;5.57;;;2.70;;
10851;SDS011;5479;52.046;6.314;2023-03-05T09:05:57;5.10;;;2.47;;
10851;SDS011;5479;52.046;6.314;2023-03-05T09:08:26;5.37;;;2.10;;
10851;SDS011;5479;52.046;6.314;2023-03-05T09:10:55;4.27;;;2.00;;
10851;SDS011;5479;52.046;6.314;2023-03-05T09:13:23;4.83;;;2.07;;
10851;SDS011;5479;52.046;6.314;2023-03-05T09:15:54;4.50;;;1.93;;
10851;SDS011;5479;52.046;6.314;2023-03-05T09:18:24;4.03;;;1.80;;
10851;SDS011;5479;52.046;6.314;2023-03-05T09:20:52;3.43;;;1.70;;
10851;SDS011;5479;52.046;6.314;2023-03-05T09:23:20;4.17;;;1.60;;
10851;SDS011;5479;52.046;6.314;2023-03-05T09:25:48;3.57;;;1.80;;
10851;SDS011;5479;52.046;6.314;2023-03-05T09:28:17;3.50;;;1.70;;
10851;SDS011;5479;52.046;6.314;2023-03-05T09:30:45;3.90;;;1.67;;
10851;SDS011;5479;52.046;6.314;2023-03-05T09:33:13;4.30;;;1.50;;
10851;SDS011;5479;52.046;6.314;2023-03-05T09:35:42;5.03;;;1.60;;
10851;SDS011;5479;52.046;6.314;2023-03-05T09:38:10;3.93;;;1.87;;
10851;SDS011;5479;52.046;6.314;2023-03-05T09:40:41;2.83;;;1.60;;
10851;SDS011;5479;52.046;6.314;2023-03-05T09:43:15;3.73;;;1.70;;
10851;SDS011;5479;52.046;6.314;2023-03-05T09:45:56;3.47;;;1.70;;
10851;SDS011;5479;52.046;6.314;2023-03-05T09:48:37;3.93;;;1.60;;
10851;SDS011;5479;52.046;6.314;2023-03-05T09:51:17;3.87;;;1.80;;
10851;SDS011;5479;52.046;6.314;2023-03-05T09:53:50;2.83;;;1.50;;
10851;SDS011;5479;52.046;6.314;2023-03-05T09:56:25;3.47;;;1.70;;
10851;SDS011;5479;52.046;6.314;2023-03-05T09:58:58;3.33;;;1.40;;
10851;SDS011;5479;52.046;6.314;2023-03-05T10:01:33;3.30;;;1.40;;
10851;SDS011;5479;52.046;6.314;2023-03-05T10:04:05;2.37;;;1.40;;
10851;SDS011;5479;52.046;6.314;2023-03-05T10:06:42;2.20;;;1.20;;
10851;SDS011;5479;52.046;6.314;2023-03-05T10:09:16;5.17;;;1.43;;
10851;SDS011;5479;52.046;6.314;2023-03-05T10:11:52;4.17;;;1.30;;
10851;SDS011;5479;52.046;6.314;2023-03-05T10:14:25;3.13;;;1.33;;
10851;SDS011;5479;52.046;6.314;2023-03-05T10:17:03;4.33;;;1.50;;
10851;SDS011;5479;52.046;6.314;2023-03-05T10:19:50;5.23;;;1.70;;
10851;SDS011;5479;52.046;6.314;2023-03-05T10:22:35;3.50;;;1.37;;
10851;SDS011;5479;52.046;6.314;2023-03-05T10:25:12;4.27;;;1.33;;
10851;SDS011;5479;52.046;6.314;2023-03-05T10:27:47;3.87;;;1.60;;
10851;SDS011;5479;52.046;6.314;2023-03-05T10:30:22;3.23;;;1.40;;
10851;SDS011;5479;52.046;6.314;2023-03-05T10:33:00;7.00;;;2.03;;
10851;SDS011;5479;52.046;6.314;2023-03-05T10:35:41;3.70;;;1.33;;
10851;SDS011;5479;52.046;6.314;2023-03-05T10:38:26;2.57;;;1.23;;
10851;SDS011;5479;52.046;6.314;2023-03-05T10:41:15;3.63;;;1.40;;
10851;SDS011;5479;52.046;6.314;2023-03-05T10:43:54;3.03;;;1.40;;
10851;SDS011;5479;52.046;6.314;2023-03-05T10:46:27;2.60;;;1.40;;
10851;SDS011;5479;52.046;6.314;2023-03-05T10:49:00;4.00;;;1.43;;
10851;SDS011;5479;52.046;6.314;2023-03-05T10:51:32;3.37;;;1.40;;
10851;SDS011;5479;52.046;6.314;2023-03-05T10:54:07;2.57;;;1.27;;
10851;SDS011;5479;52.046;6.314;2023-03-05T10:56:42;3.70;;;1.40;;
10851;SDS011;5479;52.046;6.314;2023-03-05T10:59:10;2.63;;;1.50;;
10851;SDS011;5479;52.046;6.314;2023-03-05T11:01:38;3.23;;;1.20;;
10851;SDS011;5479;52.046;6.314;2023-03-05T11:04:06;3.57;;;1.10;;
10851;SDS011;5479;52.046;6.314;2023-03-05T11:06:51;3.30;;;1.40;;
10851;SDS011;5479;52.046;6.314;2023-03-05T11:09:21;2.37;;;1.23;;
10851;SDS011;5479;52.046;6.314;2023-03-05T11:12:13;4.37;;;1.50;;
10851;SDS011;5479;52.046;6.314;2023-03-05T11:14:43;3.33;;;1.37;;
10851;SDS011;5479;52.046;6.314;2023-03-05T11:17:23;5.97;;;1.67;;
10851;SDS011;5479;52.046;6.314;2023-03-05T11:19:54;4.53;;;1.60;;
10851;SDS011;5479;52.046;6.314;2023-03-05T11:22:23;6.07;;;1.50;;
10851;SDS011;5479;52.046;6.314;2023-03-05T11:25:03;4.10;;;1.40;;
10851;SDS011;5479;52.046;6.314;2023-03-05T11:27:41;3.73;;;1.30;;
10851;SDS011;5479;52.046;6.314;2023-03-05T11:30:17;5.30;;;1.47;;
10851;SDS011;5479;52.046;6.314;2023-03-05T11:32:47;3.37;;;1.50;;
10851;SDS011;5479;52.046;6.314;2023-03-05T11:35:28;2.90;;;1.50;;
10851;SDS011;5479;52.046;6.314;2023-03-05T11:37:59;3.77;;;1.70;;
10851;SDS011;5479;52.046;6.314;2023-03-05T11:40:30;4.20;;;1.90;;
10851;SDS011;5479;52.046;6.314;2023-03-05T11:43:01;3.13;;;1.63;;
10851;SDS011;5479;52.046;6.314;2023-03-05T11:45:31;3.57;;;1.60;;
10851;SDS011;5479;52.046;6.314;2023-03-05T11:48:00;3.93;;;1.60;;
10851;SDS011;5479;52.046;6.314;2023-03-05T11:50:34;5.13;;;1.60;;
10851;SDS011;5479;52.046;6.314;2023-03-05T11:53:06;4.03;;;1.30;;
10851;SDS011;5479;52.046;6.314;2023-03-05T11:55:42;2.77;;;1.47;;
10851;SDS011;5479;52.046;6.314;2023-03-05T11:58:23;2.77;;;1.07;;
10851;SDS011;5479;52.046;6.314;2023-03-05T12:00:56;4.50;;;1.47;;
10851;SDS011;5479;52.046;6.314;2023-03-05T12:03:28;2.30;;;1.20;;
10851;SDS011;5479;52.046;6.314;2023-03-05T12:06:01;2.13;;;1.23;;
10851;SDS011;5479;52.046;6.314;2023-03-05T12:08:36;3.07;;;1.17;;
10851;SDS011;5479;52.046;6.314;2023-03-05T12:11:17;3.77;;;1.77;;
10851;SDS011;5479;52.046;6.314;2023-03-05T12:13:49;3.13;;;1.40;;
10851;SDS011;5479;52.046;6.314;2023-03-05T12:16:22;3.27;;;1.00;;
10851;SDS011;5479;52.046;6.314;2023-03-05T12:18:57;1.80;;;0.73;;
10851;SDS011;5479;52.046;6.314;2023-03-05T12:21:37;2.03;;;1.13;;
10851;SDS011;5479;52.046;6.314;2023-03-05T12:27:12;2.10;;;1.30;;
10851;SDS011;5479;52.046;6.314;2023-03-05T12:29:43;5.83;;;1.00;;
10851;SDS011;5479;52.046;6.314;2023-03-05T12:35:34;3.43;;;1.20;;
10851;SDS011;5479;52.046;6.314;2023-03-05T12:38:16;2.97;;;1.23;;
10851;SDS011;5479;52.046;6.314;2023-03-05T12:49:49;1.77;;;1.10;;
10851;SDS011;5479;52.046;6.314;2023-03-05T12:52:21;1.90;;;1.03;;
10851;SDS011;5479;52.046;6.314;2023-03-05T12:57:43;5.77;;;1.53;;
10851;SDS011;5479;52.046;6.314;2023-03-05T13:00:15;2.23;;;1.30;;
10851;SDS011;5479;52.046;6.314;2023-03-05T13:02:49;1.20;;;0.90;;
10851;SDS011;5479;52.046;6.314;2023-03-05T13:05:24;2.07;;;1.10;;
10851;SDS011;5479;52.046;6.314;2023-03-05T13:08:08;2.13;;;1.10;;
10851;SDS011;5479;52.046;6.314;2023-03-05T13:10:37;2.87;;;1.07;;
10851;SDS011;5479;52.046;6.314;2023-03-05T13:13:10;1.40;;;0.80;;
10851;SDS011;5479;52.046;6.314;2023-03-05T13:15:50;2.50;;;1.10;;
10851;SDS011;5479;52.046;6.314;2023-03-05T13:18:20;2.03;;;1.10;;
10851;SDS011;5479;52.046;6.314;2023-03-05T13:20:58;3.70;;;1.20;;
10851;SDS011;5479;52.046;6.314;2023-03-05T13:23:29;1.83;;;1.00;;
10851;SDS011;5479;52.046;6.314;2023-03-05T13:26:00;3.23;;;1.53;;
10851;SDS011;5479;52.046;6.314;2023-03-05T13:28:30;3.87;;;1.27;;
10851;SDS011;5479;52.046;6.314;2023-03-05T13:31:01;3.60;;;1.33;;
10851;SDS011;5479;52.046;6.314;2023-03-05T13:33:38;4.57;;;1.50;;
10851;SDS011;5479;52.046;6.314;2023-03-05T13:36:06;2.53;;;1.60;;
10851;SDS011;5479;52.046;6.314;2023-03-05T13:38:34;2.43;;;1.40;;
10851;SDS011;5479;52.046;6.314;2023-03-05T13:41:17;2.00;;;1.40;;
10851;SDS011;5479;52.046;6.314;2023-03-05T13:43:47;1.93;;;1.20;;
10851;SDS011;5479;52.046;6.314;2023-03-05T13:46:28;2.13;;;1.00;;
10851;SDS011;5479;52.046;6.314;2023-03-05T13:49:16;2.03;;;1.00;;
10851;SDS011;5479;52.046;6.314;2023-03-05T13:51:50;2.30;;;1.40;;
10851;SDS011;5479;52.046;6.314;2023-03-05T13:54:19;3.47;;;0.93;;
10851;SDS011;5479;52.046;6.314;2023-03-05T13:56:53;3.90;;;1.20;;
10851;SDS011;5479;52.046;6.314;2023-03-05T13:59:24;3.40;;;1.60;;
10851;SDS011;5479;52.046;6.314;2023-03-05T14:01:56;4.13;;;2.20;;
10851;SDS011;5479;52.046;6.314;2023-03-05T14:04:25;2.93;;;1.70;;
10851;SDS011;5479;52.046;6.314;2023-03-05T14:06:56;2.07;;;1.03;;
10851;SDS011;5479;52.046;6.314;2023-03-05T14:09:27;3.07;;;1.27;;
10851;SDS011;5479;52.046;6.314;2023-03-05T14:12:00;3.23;;;1.17;;
10851;SDS011;5479;52.046;6.314;2023-03-05T14:14:30;4.03;;;1.30;;
10851;SDS011;5479;52.046;6.314;2023-03-05T14:17:35;3.03;;;1.10;;
10851;SDS011;5479;52.046;6.314;2023-03-05T14:20:06;1.63;;;1.13;;
10851;SDS011;5479;52.046;6.314;2023-03-05T14:22:45;2.60;;;1.30;;
10851;SDS011;5479;52.046;6.314;2023-03-05T14:25:28;4.57;;;1.63;;
10851;SDS011;5479;52.046;6.314;2023-03-05T14:28:00;4.70;;;2.03;;
10851;SDS011;5479;52.046;6.314;2023-03-05T14:30:29;2.80;;;1.13;;
10851;SDS011;5479;52.046;6.314;2023-03-05T14:33:02;1.93;;;1.10;;
10851;SDS011;5479;52.046;6.314;2023-03-05T14:35:31;2.57;;;1.17;;
10851;SDS011;5479;52.046;6.314;2023-03-05T14:37:59;2.43;;;1.30;;
10851;SDS011;5479;52.046;6.314;2023-03-05T14:40:28;5.53;;;1.60;;
10851;SDS011;5479;52.046;6.314;2023-03-05T14:42:58;3.63;;;1.80;;
10851;SDS011;5479;52.046;6.314;2023-03-05T14:45:28;3.37;;;1.60;;
10851;SDS011;5479;52.046;6.314;2023-03-05T14:47:58;3.37;;;1.43;;
10851;SDS011;5479;52.046;6.314;2023-03-05T14:50:30;3.03;;;1.50;;
10851;SDS011;5479;52.046;6.314;2023-03-05T14:53:00;3.67;;;1.20;;
10851;SDS011;5479;52.046;6.314;2023-03-05T14:55:32;2.50;;;1.30;;
10851;SDS011;5479;52.046;6.314;2023-03-05T14:58:03;2.30;;;1.00;;
10851;SDS011;5479;52.046;6.314;2023-03-05T15:00:37;1.97;;;0.77;;
10851;SDS011;5479;52.046;6.314;2023-03-05T15:03:05;2.73;;;1.20;;
10851;SDS011;5479;52.046;6.314;2023-03-05T15:05:34;3.23;;;1.07;;
10851;SDS011;5479;52.046;6.314;2023-03-05T15:08:03;2.00;;;1.00;;
10851;SDS011;5479;52.046;6.314;2023-03-05T15:10:33;1.67;;;0.83;;
10851;SDS011;5479;52.046;6.314;2023-03-05T15:13:01;1.30;;;0.70;;
10851;SDS011;5479;52.046;6.314;2023-03-05T15:15:29;2.50;;;1.27;;
10851;SDS011;5479;52.046;6.314;2023-03-05T15:17:57;2.53;;;1.30;;
10851;SDS011;5479;52.046;6.314;2023-03-05T15:20:27;3.30;;;2.10;;
10851;SDS011;5479;52.046;6.314;2023-03-05T15:22:58;5.27;;;1.90;;
10851;SDS011;5479;52.046;6.314;2023-03-05T15:25:26;3.33;;;1.37;;
10851;SDS011;5479;52.046;6.314;2023-03-05T15:27:55;2.10;;;1.10;;
10851;SDS011;5479;52.046;6.314;2023-03-05T15:30:24;1.87;;;1.20;;
10851;SDS011;5479;52.046;6.314;2023-03-05T15:32:54;2.87;;;1.20;;
10851;SDS011;5479;52.046;6.314;2023-03-05T15:35:24;2.20;;;0.80;;
10851;SDS011;5479;52.046;6.314;2023-03-05T15:37:53;2.30;;;1.00;;